createdAt,value
2022-08-14T00:00:43.808Z,17.57
2022-08-14T00:03:09.650Z,17.57
2022-08-14T00:05:58.188Z,17.58
2022-08-14T00:08:17.337Z,17.45
2022-08-14T00:10:51.800Z,17.32
2022-08-14T00:13:06.759Z,17.31
2022-08-14T00:15:18.205Z,17.29
2022-08-14T00:17:28.354Z,17.31
2022-08-14T00:19:40.049Z,17.51
2022-08-14T00:21:52.562Z,17.67
2022-08-14T00:24:04.727Z,17.64
2022-08-14T00:26:23.077Z,17.52
2022-08-14T00:28:32.755Z,17.42
2022-08-14T00:30:46.058Z,17.26
2022-08-14T00:32:56.920Z,17.18
2022-08-14T00:35:04.974Z,17.09
2022-08-14T00:37:13.750Z,17.02
2022-08-14T00:39:27.658Z,16.94
2022-08-14T00:41:36.171Z,16.87
2022-08-14T00:43:53.261Z,16.79
2022-08-14T00:46:08.015Z,16.73
2022-08-14T00:48:34.600Z,16.70
2022-08-14T00:50:45.988Z,16.73
2022-08-14T00:53:01.088Z,16.83
2022-08-14T00:55:12.742Z,16.88
2022-08-14T00:57:23.537Z,16.79
2022-08-14T00:59:31.896Z,16.76
2022-08-14T01:01:42.770Z,16.77
2022-08-14T01:03:52.952Z,16.84
2022-08-14T01:06:02.401Z,16.68
2022-08-14T01:08:50.738Z,16.61
2022-08-14T01:10:54.564Z,16.44
2022-08-14T01:13:03.526Z,16.38
2022-08-14T01:15:14.958Z,16.26
2022-08-14T01:17:23.216Z,16.28
2022-08-14T01:19:44.193Z,16.21
2022-08-14T01:21:55.191Z,16.17
2022-08-14T01:24:11.799Z,16.17
2022-08-14T01:26:34.663Z,16.13
2022-08-14T01:28:56.607Z,16.09
2022-08-14T01:31:08.735Z,16.08
2022-08-14T01:33:16.895Z,16.03
2022-08-14T01:36:04.923Z,15.92
2022-08-14T01:37:59.115Z,15.85
2022-08-14T01:40:10.028Z,15.84
2022-08-14T01:42:31.480Z,15.79
2022-08-14T01:44:44.671Z,15.74
2022-08-14T01:47:05.656Z,15.70
2022-08-14T01:49:15.928Z,15.68
2022-08-14T01:51:27.714Z,15.64
2022-08-14T01:53:39.781Z,15.77
2022-08-14T01:55:51.695Z,15.93
2022-08-14T01:58:02.258Z,15.98
2022-08-14T02:00:28.525Z,16.02
2022-08-14T02:02:39.415Z,16.04
2022-08-14T02:04:56.120Z,15.86
2022-08-14T02:07:06.034Z,15.80
2022-08-14T02:09:28.083Z,15.79
2022-08-14T02:11:40.598Z,15.74
2022-08-14T02:13:52.258Z,15.76
2022-08-14T02:16:00.744Z,15.64
2022-08-14T02:18:32.740Z,15.55
2022-08-14T02:20:41.122Z,15.55
2022-08-14T02:22:52.265Z,15.48
2022-08-14T02:25:05.450Z,15.37
2022-08-14T02:28:24.681Z,15.31
2022-08-14T02:29:59.358Z,15.20
2022-08-14T02:32:10.714Z,15.22
2022-08-14T02:34:39.310Z,15.17
2022-08-14T02:37:05.157Z,15.10
2022-08-14T02:39:17.573Z,15.06
2022-08-14T02:41:36.672Z,15.03
2022-08-14T02:43:48.769Z,14.94
2022-08-14T02:45:56.703Z,14.90
2022-08-14T02:48:10.625Z,14.88
2022-08-14T02:50:37.841Z,14.79
2022-08-14T02:52:57.321Z,14.74
2022-08-14T02:55:19.866Z,14.72
2022-08-14T02:57:39.764Z,14.67
2022-08-14T02:59:49.191Z,14.66
2022-08-14T03:01:59.263Z,14.71
2022-08-14T03:04:10.857Z,14.72
2022-08-14T03:06:35.013Z,14.64
2022-08-14T03:08:48.535Z,14.57
2022-08-14T03:10:57.836Z,14.57
2022-08-14T03:13:19.155Z,14.55
2022-08-14T03:15:28.032Z,14.45
2022-08-14T03:17:41.104Z,14.43
2022-08-14T03:20:05.963Z,14.35
2022-08-14T03:22:19.632Z,14.38
2022-08-14T03:24:27.492Z,14.41
2022-08-14T03:26:35.463Z,14.37
2022-08-14T03:28:47.780Z,14.35
2022-08-14T03:30:56.955Z,14.38
2022-08-14T03:33:09.085Z,14.36
2022-08-14T03:35:19.865Z,14.29
2022-08-14T03:39:10.740Z,14.23
2022-08-14T03:40:00.461Z,14.22
2022-08-14T03:42:19.183Z,14.24
2022-08-14T03:45:26.683Z,14.29
2022-08-14T03:46:58.397Z,14.32
2022-08-14T03:49:08.939Z,14.22
2022-08-14T03:51:21.303Z,14.18
2022-08-14T03:53:31.304Z,14.16
2022-08-14T03:55:42.369Z,14.14
2022-08-14T03:57:50.465Z,14.06
2022-08-14T04:00:04.777Z,14.05
2022-08-14T04:02:32.901Z,14.00
2022-08-14T04:04:46.390Z,13.92
2022-08-14T04:06:59.468Z,13.91
2022-08-14T04:09:08.979Z,13.92
2022-08-14T04:11:16.825Z,13.87
2022-08-14T04:13:27.927Z,13.88
2022-08-14T04:16:01.509Z,13.85
2022-08-14T04:18:11.816Z,13.86
2022-08-14T04:20:25.774Z,13.84
2022-08-14T04:22:35.200Z,13.86
2022-08-14T04:24:45.564Z,13.87
2022-08-14T04:26:58.146Z,13.87
2022-08-14T04:29:14.374Z,13.78
2022-08-14T04:32:58.814Z,13.83
2022-08-14T04:33:55.635Z,13.86
2022-08-14T04:36:03.625Z,13.93
2022-08-14T04:38:36.496Z,14.05
2022-08-14T04:40:58.921Z,14.64
2022-08-14T04:43:22.956Z,15.43
2022-08-14T04:45:38.882Z,16.09
2022-08-14T04:48:02.565Z,16.74
2022-08-14T04:50:14.613Z,17.18
2022-08-14T04:52:24.576Z,18.34
2022-08-14T04:54:32.868Z,19.11
2022-08-14T04:56:42.743Z,20.23
2022-08-14T04:58:51.656Z,21.09
2022-08-14T05:01:12.898Z,21.83
2022-08-14T05:03:33.414Z,22.15
2022-08-14T05:05:41.550Z,21.94
2022-08-14T05:08:01.145Z,21.86
2022-08-14T05:10:16.345Z,21.78
2022-08-14T05:13:12.498Z,23.81
2022-08-14T05:15:00.953Z,23.35
2022-08-14T05:17:12.378Z,23.36
2022-08-14T05:19:29.363Z,24.94
2022-08-14T05:21:58.152Z,26.36
2022-08-14T05:24:17.835Z,26.97
2022-08-14T05:26:28.369Z,26.72
2022-08-14T05:28:37.927Z,28.43
2022-08-14T05:30:46.726Z,28.89
2022-08-14T05:32:55.357Z,29.24
2022-08-14T05:35:08.992Z,26.61
2022-08-14T05:37:18.841Z,26.72
2022-08-14T05:39:27.062Z,26.36
2022-08-14T05:41:52.751Z,24.04
2022-08-14T05:44:06.601Z,24.71
2022-08-14T05:46:18.596Z,24.25
2022-08-14T05:48:33.626Z,24.63
2022-08-14T05:50:46.200Z,23.70
2022-08-14T05:52:58.540Z,25.37
2022-08-14T05:55:07.292Z,25.04
2022-08-14T05:57:16.105Z,25.33
2022-08-14T05:59:36.446Z,27.13
2022-08-14T06:01:46.806Z,27.47
2022-08-14T06:04:01.444Z,27.52
2022-08-14T06:06:21.107Z,26.17
2022-08-14T06:08:36.494Z,27.41
2022-08-14T06:10:50.573Z,28.08
2022-08-14T06:13:02.268Z,28.51
2022-08-14T06:15:14.009Z,26.53
2022-08-14T06:17:26.111Z,26.56
2022-08-14T06:19:35.117Z,25.61
2022-08-14T06:21:45.592Z,24.93
2022-08-14T06:23:54.507Z,24.45
2022-08-14T06:26:04.557Z,25.10
2022-08-14T06:28:27.016Z,26.22
2022-08-14T06:30:45.848Z,25.65
2022-08-14T06:32:55.313Z,27.27
2022-08-14T06:35:12.577Z,26.78
2022-08-14T06:37:24.516Z,26.55
2022-08-14T06:39:36.427Z,27.48
2022-08-14T06:41:57.535Z,28.67
2022-08-14T06:44:09.640Z,31.08
2022-08-14T06:46:23.057Z,29.40
2022-08-14T06:48:32.737Z,30.39
2022-08-14T06:50:46.798Z,31.16
2022-08-14T06:52:57.676Z,29.94
2022-08-14T06:55:05.950Z,29.12
2022-08-14T06:57:18.584Z,29.70
2022-08-14T06:59:29.352Z,30.28
2022-08-14T07:01:49.804Z,28.83
2022-08-14T07:04:18.906Z,28.63
2022-08-14T07:06:45.685Z,29.96
2022-08-14T07:09:00.256Z,29.61
2022-08-14T07:11:08.815Z,32.93
2022-08-14T07:13:22.609Z,33.86
2022-08-14T07:15:32.462Z,30.20
2022-08-14T07:17:52.122Z,31.35
2022-08-14T07:20:04.213Z,31.92
2022-08-14T07:22:17.406Z,30.68
2022-08-14T07:24:31.880Z,30.83
2022-08-14T07:26:41.064Z,31.22
2022-08-14T07:28:49.528Z,30.05
2022-08-14T07:31:04.579Z,31.10
2022-08-14T07:33:15.741Z,34.04
2022-08-14T07:35:24.365Z,33.84
2022-08-14T07:37:41.215Z,32.64
2022-08-14T07:39:51.692Z,31.25
2022-08-14T07:42:03.887Z,31.55
2022-08-14T07:44:32.568Z,32.50
2022-08-14T07:46:44.838Z,34.17
2022-08-14T07:48:53.185Z,32.83
2022-08-14T07:51:03.838Z,32.00
2022-08-14T07:53:20.263Z,29.95
2022-08-14T07:55:32.392Z,30.11
2022-08-14T07:57:43.502Z,28.73
2022-08-14T08:00:11.372Z,29.00
2022-08-14T08:02:42.948Z,27.66
2022-08-14T08:04:59.050Z,26.53
2022-08-14T08:07:08.765Z,25.98
2022-08-14T08:09:37.963Z,25.20
2022-08-14T08:11:58.494Z,25.14
2022-08-14T08:14:17.511Z,25.33
2022-08-14T08:16:26.687Z,24.70
2022-08-14T08:18:36.313Z,24.23
2022-08-14T08:20:52.188Z,24.29
2022-08-14T08:23:06.302Z,23.95
2022-08-14T08:25:18.235Z,24.21
2022-08-14T08:27:29.569Z,24.13
2022-08-14T08:29:39.125Z,23.87
2022-08-14T08:31:55.978Z,23.99
2022-08-14T08:34:10.748Z,24.16
2022-08-14T08:36:30.003Z,24.22
2022-08-14T08:39:17.102Z,23.95
2022-08-14T08:41:11.205Z,24.03
2022-08-14T08:43:28.005Z,24.17
2022-08-14T08:45:39.841Z,24.31
2022-08-14T08:47:48.043Z,24.78
2022-08-14T08:49:59.911Z,24.96
2022-08-14T08:52:24.630Z,24.84
2022-08-14T08:54:33.586Z,24.85
2022-08-14T08:56:45.539Z,24.88
2022-08-14T08:58:57.498Z,24.98
2022-08-14T09:01:06.245Z,25.34
2022-08-14T09:03:20.856Z,25.44
2022-08-14T09:05:34.301Z,25.48
2022-08-14T09:07:45.157Z,25.41
2022-08-14T09:10:00.005Z,25.39
2022-08-14T09:12:13.840Z,25.63
2022-08-14T09:14:28.596Z,25.74
2022-08-14T09:16:37.042Z,25.92
2022-08-14T09:18:44.958Z,26.23
2022-08-14T09:20:59.229Z,26.58
2022-08-14T09:23:07.469Z,26.63
2022-08-14T09:25:19.823Z,26.98
2022-08-14T09:27:48.316Z,27.49
2022-08-14T09:29:59.093Z,27.81
2022-08-14T09:33:09.367Z,29.14
2022-08-14T09:34:59.132Z,29.40
2022-08-14T09:37:21.661Z,29.19
2022-08-14T09:39:46.000Z,29.25
2022-08-14T09:42:33.961Z,30.01
2022-08-14T09:44:50.848Z,30.62
2022-08-14T09:47:05.160Z,30.14
2022-08-14T09:49:16.657Z,30.66
2022-08-14T09:51:26.190Z,30.51
2022-08-14T09:54:06.067Z,31.01
2022-08-14T09:56:14.126Z,30.75
2022-08-14T09:58:42.919Z,31.13
2022-08-14T10:01:06.195Z,30.38
2022-08-14T10:03:33.117Z,31.24
2022-08-14T10:05:42.382Z,30.57
2022-08-14T10:07:57.461Z,30.34
2022-08-14T10:10:23.105Z,30.93
2022-08-14T10:12:54.934Z,31.34
2022-08-14T10:15:20.923Z,30.71
2022-08-14T10:17:38.455Z,30.60
2022-08-14T10:20:00.706Z,31.75
2022-08-14T10:23:11.045Z,30.19
2022-08-14T10:24:42.512Z,29.66
2022-08-14T10:27:00.918Z,30.38
2022-08-14T10:29:19.292Z,30.83
2022-08-14T10:31:44.476Z,30.58
2022-08-14T10:34:13.464Z,30.02
2022-08-14T10:36:36.842Z,30.18
2022-08-14T10:39:00.250Z,30.90
2022-08-14T10:41:14.735Z,30.77
2022-08-14T10:43:25.786Z,30.42
2022-08-14T10:45:46.270Z,29.95
2022-08-14T10:48:09.133Z,29.66
2022-08-14T10:50:21.690Z,29.88
2022-08-14T10:52:43.672Z,29.62
2022-08-14T10:54:57.478Z,29.68
2022-08-14T10:57:32.138Z,29.63
2022-08-14T10:59:48.484Z,29.64
2022-08-14T11:01:57.078Z,29.15
2022-08-14T11:04:05.503Z,29.60
2022-08-14T11:06:27.137Z,29.08
2022-08-14T11:08:38.204Z,29.03
2022-08-14T11:10:49.292Z,28.62
2022-08-14T11:13:02.109Z,28.72
2022-08-14T11:15:15.172Z,28.72
2022-08-14T11:17:26.481Z,28.74
2022-08-14T11:19:38.935Z,28.94
2022-08-14T11:21:47.094Z,28.64
2022-08-14T11:23:59.425Z,28.81
2022-08-14T11:26:10.767Z,28.68
2022-08-14T11:28:20.843Z,28.79
2022-08-14T11:30:54.026Z,28.68
2022-08-14T11:33:05.371Z,28.72
2022-08-14T11:35:16.597Z,29.03
2022-08-14T11:37:36.934Z,29.24
2022-08-14T11:39:51.567Z,29.27
2022-08-14T11:42:00.506Z,29.19
2022-08-14T11:44:46.628Z,29.56
2022-08-14T11:46:55.887Z,29.34
2022-08-14T11:49:06.946Z,28.99
2022-08-14T11:51:24.521Z,29.18
2022-08-14T11:53:35.321Z,29.32
2022-08-14T11:56:01.620Z,29.39
2022-08-14T11:58:15.756Z,29.33
2022-08-14T12:00:38.180Z,29.37
2022-08-14T12:03:04.167Z,29.02
2022-08-14T12:05:14.586Z,28.96
2022-08-14T12:07:27.332Z,28.91
2022-08-14T12:09:43.132Z,29.18
2022-08-14T12:11:56.187Z,28.96
2022-08-14T12:14:29.135Z,29.08
2022-08-14T12:16:40.737Z,29.55
2022-08-14T12:18:50.877Z,29.37
2022-08-14T12:21:02.369Z,29.69
2022-08-14T12:23:22.441Z,29.93
2022-08-14T12:25:31.570Z,30.12
2022-08-14T12:27:58.951Z,30.32
2022-08-14T12:30:21.218Z,30.27
2022-08-14T12:32:30.746Z,29.88
2022-08-14T12:34:45.089Z,29.70
2022-08-14T12:37:11.837Z,29.43
2022-08-14T12:39:26.326Z,29.34
2022-08-14T12:41:38.985Z,29.35
2022-08-14T12:43:57.018Z,29.56
2022-08-14T12:46:22.231Z,29.75
2022-08-14T12:48:52.045Z,29.47
2022-08-14T12:51:03.908Z,29.43
2022-08-14T12:53:18.476Z,29.49
2022-08-14T12:55:32.260Z,29.57
2022-08-14T12:57:44.339Z,29.61
2022-08-14T13:00:22.453Z,29.74
2022-08-14T13:02:32.107Z,30.03
2022-08-14T13:04:43.165Z,30.24
2022-08-14T13:06:53.250Z,30.46
2022-08-14T13:09:02.089Z,30.27
2022-08-14T13:11:15.262Z,30.39
2022-08-14T13:13:26.030Z,30.49
2022-08-14T13:15:40.464Z,30.36
2022-08-14T13:17:52.402Z,30.47
2022-08-14T13:20:10.290Z,30.70
2022-08-14T13:22:29.198Z,30.36
2022-08-14T13:24:42.127Z,29.96
2022-08-14T13:26:53.809Z,29.90
2022-08-14T13:29:09.491Z,29.76
2022-08-14T13:31:30.137Z,29.46
2022-08-14T13:33:41.879Z,29.56
2022-08-14T13:35:52.027Z,29.74
2022-08-14T13:38:01.556Z,29.64
2022-08-14T13:40:10.989Z,29.54
2022-08-14T13:42:21.211Z,29.65
2022-08-14T13:44:36.242Z,29.89
2022-08-14T13:46:52.923Z,29.98
2022-08-14T13:49:00.800Z,30.07
2022-08-14T13:51:13.426Z,29.89
2022-08-14T13:53:29.085Z,29.99
2022-08-14T13:55:42.644Z,29.97
2022-08-14T13:58:03.808Z,29.99
2022-08-14T14:00:33.035Z,29.93
2022-08-14T14:02:50.774Z,30.17
2022-08-14T14:05:06.403Z,30.23
2022-08-14T14:07:17.446Z,30.00
2022-08-14T14:09:32.551Z,29.96
2022-08-14T14:11:46.649Z,29.81
2022-08-14T14:14:02.442Z,29.83
2022-08-14T14:16:14.883Z,29.93
2022-08-14T14:18:34.063Z,29.90
2022-08-14T14:20:47.166Z,29.81
2022-08-14T14:23:02.603Z,30.00
2022-08-14T14:25:14.622Z,30.00
2022-08-14T14:27:40.797Z,30.02
2022-08-14T14:29:55.661Z,30.09
2022-08-14T14:32:31.307Z,30.10
2022-08-14T14:34:46.883Z,30.13
2022-08-14T14:36:55.904Z,30.47
2022-08-14T14:39:06.569Z,30.33
2022-08-14T14:41:18.785Z,30.18
2022-08-14T14:43:30.673Z,30.09
2022-08-14T14:45:40.916Z,29.80
2022-08-14T14:47:58.903Z,29.83
2022-08-14T14:50:11.311Z,29.63
2022-08-14T14:52:26.773Z,29.66
2022-08-14T14:54:37.502Z,29.69
2022-08-14T14:56:54.164Z,29.64
2022-08-14T14:59:04.705Z,29.52
2022-08-14T15:01:23.533Z,29.57
2022-08-14T15:03:32.550Z,29.67
2022-08-14T15:05:47.001Z,29.80
2022-08-14T15:07:57.883Z,29.80
2022-08-14T15:10:28.359Z,29.83
2022-08-14T15:12:56.436Z,29.89
2022-08-14T15:15:08.957Z,29.84
2022-08-14T15:17:17.529Z,29.89
2022-08-14T15:19:25.400Z,29.89
2022-08-14T15:21:37.696Z,29.91
2022-08-14T15:23:48.976Z,29.62
2022-08-14T15:25:58.095Z,29.52
2022-08-14T15:28:12.580Z,29.55
2022-08-14T15:30:24.293Z,29.57
2022-08-14T15:32:41.190Z,29.80
2022-08-14T15:34:51.581Z,29.95
2022-08-14T15:37:04.553Z,30.07
2022-08-14T15:39:16.490Z,30.04
2022-08-14T15:41:24.829Z,30.20
2022-08-14T15:43:33.814Z,30.38
2022-08-14T15:45:44.159Z,30.53
2022-08-14T15:47:52.073Z,30.59
2022-08-14T15:50:01.854Z,30.38
2022-08-14T15:52:12.420Z,30.39
2022-08-14T15:54:22.079Z,30.40
2022-08-14T15:56:42.118Z,30.19
2022-08-14T15:58:50.889Z,30.11
2022-08-14T16:01:11.243Z,29.77
2022-08-14T16:03:27.242Z,29.64
2022-08-14T16:05:43.700Z,29.68
2022-08-14T16:07:58.115Z,29.66
2022-08-14T16:12:41.746Z,29.83
2022-08-14T16:14:54.308Z,29.94
2022-08-14T16:17:02.705Z,29.93
2022-08-14T16:19:21.013Z,29.86
2022-08-14T16:21:31.603Z,29.91
2022-08-14T16:23:45.451Z,29.92
2022-08-14T16:25:56.113Z,29.83
2022-08-14T16:28:07.334Z,29.77
2022-08-14T16:30:20.485Z,29.62
2022-08-14T16:32:36.031Z,29.62
2022-08-14T16:35:03.154Z,29.46
2022-08-14T16:37:13.494Z,29.35
2022-08-14T16:39:24.445Z,29.33
2022-08-14T16:41:32.879Z,29.37
2022-08-14T16:43:44.840Z,29.30
2022-08-14T16:46:04.766Z,29.34
2022-08-14T16:48:57.089Z,29.41
2022-08-14T16:50:44.360Z,29.50
2022-08-14T16:52:55.673Z,29.55
2022-08-14T16:55:08.771Z,29.48
2022-08-14T16:57:22.473Z,29.36
2022-08-14T16:59:52.014Z,29.27
2022-08-14T17:02:00.878Z,29.21
2022-08-14T17:04:24.697Z,29.11
2022-08-14T17:06:48.918Z,28.93
2022-08-14T17:09:04.289Z,28.72
2022-08-14T17:11:16.078Z,28.66
2022-08-14T17:13:59.818Z,28.52
2022-08-14T17:16:07.623Z,28.45
2022-08-14T17:18:22.166Z,28.29
2022-08-14T17:20:54.096Z,28.19
2022-08-14T17:23:01.321Z,28.14
2022-08-14T17:25:10.228Z,27.98
2022-08-14T17:27:27.666Z,27.79
2022-08-14T17:29:54.649Z,27.68
2022-08-14T17:32:22.505Z,27.52
2022-08-14T17:34:47.996Z,27.42
2022-08-14T17:36:58.132Z,27.33
2022-08-14T17:39:13.410Z,27.19
2022-08-14T17:41:33.013Z,27.06
2022-08-14T17:43:47.594Z,26.92
2022-08-14T17:46:10.153Z,26.85
2022-08-14T17:49:15.820Z,26.84
2022-08-14T17:51:01.945Z,26.62
2022-08-14T17:53:13.626Z,26.43
2022-08-14T17:56:01.378Z,26.25
2022-08-14T17:57:53.730Z,26.22
2022-08-14T18:00:05.265Z,26.22
2022-08-14T18:02:16.873Z,26.13
2022-08-14T18:04:28.728Z,26.18
2022-08-14T18:06:57.787Z,26.29
2022-08-14T18:09:25.313Z,26.27
2022-08-14T18:11:46.349Z,26.19
2022-08-14T18:14:00.757Z,26.10
2022-08-14T18:16:20.084Z,25.95
2022-08-14T18:18:32.127Z,25.79
2022-08-14T18:21:23.785Z,25.65
2022-08-14T18:23:13.171Z,25.45
2022-08-14T18:25:24.725Z,25.28
2022-08-14T18:27:41.911Z,25.02
2022-08-14T18:29:55.823Z,24.89
2022-08-14T18:32:47.684Z,24.74
2022-08-14T18:35:11.142Z,24.65
2022-08-14T18:37:23.011Z,24.51
2022-08-14T18:39:34.781Z,24.50
2022-08-14T18:42:32.447Z,24.51
2022-08-14T18:45:12.707Z,24.36
2022-08-14T18:47:32.710Z,24.26
2022-08-14T18:50:27.720Z,24.20
2022-08-14T18:52:49.387Z,24.14
2022-08-14T18:54:59.892Z,24.18
2022-08-14T18:57:09.680Z,24.13
2022-08-14T18:59:35.426Z,24.12
2022-08-14T19:01:44.218Z,24.03
2022-08-14T19:04:04.207Z,24.13
2022-08-14T19:06:18.691Z,24.21
2022-08-14T19:08:27.349Z,24.28
2022-08-14T19:10:37.674Z,24.38
2022-08-14T19:13:05.108Z,24.40
2022-08-14T19:15:26.972Z,24.50
2022-08-14T19:18:11.011Z,24.39
2022-08-14T19:20:20.542Z,24.36
2022-08-14T19:22:32.115Z,24.35
2022-08-14T19:24:45.221Z,24.29
2022-08-14T19:27:23.858Z,24.25
2022-08-14T19:29:37.655Z,24.12
2022-08-14T19:31:55.097Z,24.10
2022-08-14T19:34:07.392Z,24.05
2022-08-14T19:36:28.683Z,23.95
2022-08-14T19:38:57.522Z,23.95
2022-08-14T19:41:16.526Z,23.95
2022-08-14T19:43:55.572Z,23.88
2022-08-14T19:45:59.179Z,23.83
2022-08-14T19:48:16.118Z,23.86
2022-08-14T19:50:38.561Z,23.83
2022-08-14T19:53:05.170Z,23.83
2022-08-14T19:55:20.995Z,23.75
2022-08-14T19:57:42.773Z,23.74
2022-08-14T20:00:28.063Z,23.57
2022-08-14T20:02:37.890Z,23.58
2022-08-14T20:04:52.577Z,23.81
2022-08-14T20:07:08.815Z,23.83
2022-08-14T20:11:11.044Z,23.83
2022-08-14T20:12:03.068Z,23.78
2022-08-14T20:14:20.388Z,23.76
2022-08-14T20:16:35.512Z,23.90
2022-08-14T20:18:50.767Z,23.85
2022-08-14T20:20:59.129Z,23.76
2022-08-14T20:23:15.426Z,23.79
2022-08-14T20:25:26.799Z,23.80
2022-08-14T20:27:44.031Z,23.69
2022-08-14T20:30:29.531Z,23.65
2022-08-14T20:32:44.345Z,23.60
2022-08-14T20:34:57.371Z,23.63
2022-08-14T20:37:09.763Z,23.55
2022-08-14T20:39:18.311Z,23.43
2022-08-14T20:41:30.786Z,23.60
2022-08-14T20:43:55.878Z,23.51
2022-08-14T20:46:14.328Z,23.53
2022-08-14T20:48:53.390Z,23.51
2022-08-14T20:50:58.594Z,23.41
2022-08-14T20:53:32.513Z,23.32
2022-08-14T20:55:45.240Z,23.38
2022-08-14T20:57:57.797Z,23.27
2022-08-14T21:00:08.895Z,23.29
2022-08-14T21:02:46.824Z,23.31
2022-08-14T21:05:00.754Z,23.21
2022-08-14T21:07:24.719Z,23.15
2022-08-14T21:10:06.246Z,23.07
2022-08-14T21:12:34.785Z,23.05
2022-08-14T21:14:51.578Z,23.02
2022-08-14T21:17:00.106Z,23.08
2022-08-14T21:19:10.632Z,23.02
2022-08-14T21:21:40.352Z,22.94
2022-08-14T21:23:54.328Z,22.98
2022-08-14T21:26:05.438Z,22.99
2022-08-14T21:28:30.154Z,22.91
2022-08-14T21:30:51.180Z,22.96
2022-08-14T21:33:00.121Z,22.94
2022-08-14T21:35:13.577Z,22.91
2022-08-14T21:37:24.255Z,22.89
2022-08-14T21:39:32.457Z,22.89
2022-08-14T21:41:42.896Z,22.91
2022-08-14T21:44:05.226Z,22.93
2022-08-14T21:46:26.396Z,22.86
2022-08-14T21:48:35.915Z,22.83
2022-08-14T21:51:01.047Z,22.90
2022-08-14T21:53:19.066Z,22.86
2022-08-14T21:55:31.597Z,22.81
2022-08-14T21:57:56.444Z,22.78
2022-08-14T22:00:35.278Z,22.78
2022-08-14T22:02:45.463Z,22.70
2022-08-14T22:04:59.795Z,22.74
2022-08-14T22:07:18.132Z,22.68
2022-08-14T22:09:32.481Z,22.67
2022-08-14T22:11:45.622Z,22.66
2022-08-14T22:14:24.901Z,22.67
2022-08-14T22:17:01.597Z,22.60
2022-08-14T22:19:04.501Z,22.63
2022-08-14T22:21:21.495Z,22.66
2022-08-14T22:23:32.598Z,22.60
2022-08-14T22:25:46.505Z,22.58
2022-08-14T22:27:55.471Z,22.56
2022-08-14T22:30:05.823Z,22.60
2022-08-14T22:32:15.380Z,22.53
2022-08-14T22:34:26.005Z,22.58
2022-08-14T22:36:54.159Z,22.54
2022-08-14T22:39:05.471Z,22.51
2022-08-14T22:41:28.921Z,22.50
2022-08-14T22:43:44.149Z,22.50
2022-08-14T22:45:56.198Z,22.55
2022-08-14T22:48:05.080Z,22.48
2022-08-14T22:50:29.030Z,22.47
2022-08-14T22:52:40.235Z,22.49
2022-08-14T22:55:00.040Z,22.51
2022-08-14T22:57:10.493Z,22.46
2022-08-14T22:59:34.835Z,22.43
2022-08-14T23:01:56.758Z,22.49
2022-08-14T23:04:06.930Z,22.42
2022-08-14T23:07:02.903Z,22.43
2022-08-14T23:08:44.300Z,22.36
2022-08-14T23:11:13.283Z,22.40
2022-08-14T23:13:22.018Z,22.35
2022-08-14T23:15:35.124Z,22.26
2022-08-14T23:17:48.499Z,22.27
2022-08-14T23:19:56.840Z,22.29
2022-08-14T23:22:08.240Z,22.18
2022-08-14T23:24:18.941Z,22.10
2022-08-14T23:26:48.148Z,21.97
2022-08-14T23:28:58.796Z,21.93
2022-08-14T23:31:34.715Z,21.88
2022-08-14T23:33:46.090Z,21.90
2022-08-14T23:36:01.207Z,21.78
2022-08-14T23:38:13.267Z,21.71
2022-08-14T23:40:42.635Z,21.63
2022-08-14T23:43:09.340Z,21.52
2022-08-14T23:45:17.133Z,21.48
2022-08-14T23:47:27.983Z,21.45
2022-08-14T23:49:56.407Z,21.43
2022-08-14T23:52:55.440Z,21.39
2022-08-14T23:54:49.411Z,21.46
2022-08-14T23:57:02.451Z,21.39
2022-08-14T23:59:13.954Z,21.32
